CMA CGM Tosca — FMEL — position and weather

sailwx.info

Track history (hours):
 
Tides and Currents Weather Stations Pressure Air Temp Water Temp Dewpoint Dewpoint Depression Visibility Wind Speed Wind Dir Waves Ship Positions

CMA CGM Tosca

Last reported at 2017-Feb-25 14:28 UTC. Time now 2017-Feb-25 16:02 UTC.
Position N 39°45' W 009°51'.

Length 334 m; draft 12.1 m.

Type: Cargo ship. MMSI: 228335900.

Date/timePositionNaut miles runAvg speedWind from/ knotsBaromVisibWave heightAir tempDewpointWater temp
2017-Feb-25 14:28N 39°45' W 009°51'2215.8
2017-Feb-25 13:04N 39°23' W 009°51'816.3
2017-Feb-25 12:33N 39°15' W 009°51'1616.3
2017-Feb-25 11:34N 38°58' W 009°51'1616.3
2017-Feb-25 10:34N 38°42' W 009°51'1616.2
2017-Feb-25 09:33N 38°26' W 009°46'1919.6
2017-Feb-25 08:34N 38°07' W 009°41'1616.5
2017-Feb-25 07:34N 37°51' W 009°36'1616.0
2017-Feb-25 06:33N 37°36' W 009°32'20814.6
2017-Feb-24 16:20N 35°57' W 005°43'810.3
2017-Feb-24 15:34N 35°54' W 005°34'1 0.6
2017-Feb-24 13:25N 35°53' W 005°34'4 4.3
2017-Feb-24 12:33N 35°55' W 005°30'1 1.2
2017-Feb-24 11:27N 35°54' W 005°30'0 0.0
2017-Feb-24 10:33N 35°54' W 005°30'0 0.0
2017-Feb-24 09:33N 35°54' W 005°30'0 0.0
2017-Feb-24 08:33N 35°54' W 005°30'0 0.0
2017-Feb-24 07:06N 35°54' W 005°30'0 0.0
2017-Feb-24 06:33N 35°54' W 005°30'0 0.0
2017-Feb-24 05:27N 35°54' W 005°30'0 0.0
2017-Feb-24 04:27N 35°54' W 005°30'0 0.0
2017-Feb-24 03:33N 35°54' W 005°30'0 0.0
2017-Feb-24 02:33N 35°54' W 005°30'0 0.0
2017-Feb-24 01:33N 35°54' W 005°30'3 3.3
2017-Feb-24 00:33N 35°57' W 005°30'1110.9
2017-Feb-23 23:33N 36°01' W 005°18'40518.1
2017-Feb-23 01:11N 37°30' E 002°55'1118.0
2017-Feb-23 00:33N 37°32' E 003°09'1818.0
2017-Feb-22 23:33N 37°36' E 003°31'1918.2
2017-Feb-22 22:30N 37°40' E 003°55'1718.2
2017-Feb-22 21:33N 37°45' E 004°16'2118.1
2017-Feb-22 20:25N 37°50' E 004°41'20717.5
2017-Feb-22 08:33N 38°46' E 008°55'1717.3
2017-Feb-22 07:33N 39°00' E 009°08'1110.7
2017-Feb-22 06:34N 39°11' E 009°06'2 2.3
2017-Feb-22 05:33N 39°13' E 009°05'0 0.0
2017-Feb-22 04:32N 39°13' E 009°05'0 0.0
2017-Feb-22 03:32N 39°13' E 009°05'0 0.0
2017-Feb-22 02:32N 39°13' E 009°05'0 0.0
2017-Feb-22 01:32N 39°13' E 009°05'0 0.0
2017-Feb-22 00:32N 39°13' E 009°05'0 0.0
2017-Feb-21 23:32N 39°13' E 009°05'0 0.0
2017-Feb-21 22:32N 39°13' E 009°05'0 0.0
2017-Feb-21 21:32N 39°13' E 009°05'0 0.0
2017-Feb-21 20:32N 39°13' E 009°05'0 0.0
2017-Feb-21 19:32N 39°13' E 009°05'0 0.0
2017-Feb-21 18:32N 39°13' E 009°05'0 0.0
2017-Feb-21 17:32N 39°13' E 009°05'0 0.0
2017-Feb-21 16:32N 39°13' E 009°05'0 0.0
2017-Feb-21 15:32N 39°13' E 009°05'0 0.0
2017-Feb-21 14:32N 39°13' E 009°05'0 0.0
2017-Feb-21 13:32N 39°13' E 009°05'0 0.0
2017-Feb-21 12:32N 39°13' E 009°05'0 0.0
2017-Feb-21 11:33N 39°13' E 009°04'4 4.3
2017-Feb-21 10:33N 39°08' E 009°05'1111.0
2017-Feb-21 09:33N 39°03' E 009°17'24718.5
2017-Feb-20 20:10N 36°49' E 013°41'1118.0
2017-Feb-20 19:33N 36°43' E 013°53'1818.4
2017-Feb-20 18:33N 36°33' E 014°12'1818.4
2017-Feb-20 17:34N 36°24' E 014°32'1918.5
2017-Feb-20 16:33N 36°18' E 014°53'  
Track history (hours):
 
Tides and Currents Weather Stations Pressure Air Temp Water Temp Dewpoint Dewpoint Depression Visibility Wind Speed Wind Dir Waves Ship Positions

CMA CGM Tosca

Last reported at 2017-Feb-25 14:28 UTC. Time now 2017-Feb-25 16:02 UTC.
Position N 39°45' W 009°51'.

Length 334 m; draft 12.1 m.

Type: Cargo ship. MMSI: 228335900.

Date/timePositionNaut miles runAvg speedWind from/ knotsBaromVisibWave heightAir tempDewpointWater temp
2017-Feb-25 14:28N 39°45' W 009°51'2215.8
2017-Feb-25 13:04N 39°23' W 009°51'816.3
2017-Feb-25 12:33N 39°15' W 009°51'1616.3
2017-Feb-25 11:34N 38°58' W 009°51'1616.3
2017-Feb-25 10:34N 38°42' W 009°51'1616.2
2017-Feb-25 09:33N 38°26' W 009°46'1919.6
2017-Feb-25 08:34N 38°07' W 009°41'1616.5
2017-Feb-25 07:34N 37°51' W 009°36'1616.0
2017-Feb-25 06:33N 37°36' W 009°32'20814.6
2017-Feb-24 16:20N 35°57' W 005°43'810.3
2017-Feb-24 15:34N 35°54' W 005°34'1 0.6
2017-Feb-24 13:25N 35°53' W 005°34'4 4.3
2017-Feb-24 12:33N 35°55' W 005°30'1 1.2
2017-Feb-24 11:27N 35°54' W 005°30'0 0.0
2017-Feb-24 10:33N 35°54' W 005°30'0 0.0
2017-Feb-24 09:33N 35°54' W 005°30'0 0.0
2017-Feb-24 08:33N 35°54' W 005°30'0 0.0
2017-Feb-24 07:06N 35°54' W 005°30'0 0.0
2017-Feb-24 06:33N 35°54' W 005°30'0 0.0
2017-Feb-24 05:27N 35°54' W 005°30'0 0.0
2017-Feb-24 04:27N 35°54' W 005°30'0 0.0
2017-Feb-24 03:33N 35°54' W 005°30'0 0.0
2017-Feb-24 02:33N 35°54' W 005°30'0 0.0
2017-Feb-24 01:33N 35°54' W 005°30'3 3.3
2017-Feb-24 00:33N 35°57' W 005°30'1110.9
2017-Feb-23 23:33N 36°01' W 005°18'40518.1
2017-Feb-23 01:11N 37°30' E 002°55'1118.0
2017-Feb-23 00:33N 37°32' E 003°09'1818.0
2017-Feb-22 23:33N 37°36' E 003°31'1918.2
2017-Feb-22 22:30N 37°40' E 003°55'1718.2
2017-Feb-22 21:33N 37°45' E 004°16'2118.1
2017-Feb-22 20:25N 37°50' E 004°41'20717.5
2017-Feb-22 08:33N 38°46' E 008°55'1717.3
2017-Feb-22 07:33N 39°00' E 009°08'1110.7
2017-Feb-22 06:34N 39°11' E 009°06'2 2.3
2017-Feb-22 05:33N 39°13' E 009°05'0 0.0
2017-Feb-22 04:32N 39°13' E 009°05'0 0.0
2017-Feb-22 03:32N 39°13' E 009°05'0 0.0
2017-Feb-22 02:32N 39°13' E 009°05'0 0.0
2017-Feb-22 01:32N 39°13' E 009°05'0 0.0
2017-Feb-22 00:32N 39°13' E 009°05'0 0.0
2017-Feb-21 23:32N 39°13' E 009°05'0 0.0
2017-Feb-21 22:32N 39°13' E 009°05'0 0.0
2017-Feb-21 21:32N 39°13' E 009°05'0 0.0
2017-Feb-21 20:32N 39°13' E 009°05'0 0.0
2017-Feb-21 19:32N 39°13' E 009°05'0 0.0
2017-Feb-21 18:32N 39°13' E 009°05'0 0.0
2017-Feb-21 17:32N 39°13' E 009°05'0 0.0
2017-Feb-21 16:32N 39°13' E 009°05'0 0.0
2017-Feb-21 15:32N 39°13' E 009°05'0 0.0
2017-Feb-21 14:32N 39°13' E 009°05'0 0.0
2017-Feb-21 13:32N 39°13' E 009°05'0 0.0
2017-Feb-21 12:32N 39°13' E 009°05'0 0.0
2017-Feb-21 11:33N 39°13' E 009°04'4 4.3
2017-Feb-21 10:33N 39°08' E 009°05'1111.0
2017-Feb-21 09:33N 39°03' E 009°17'24718.5
2017-Feb-20 20:10N 36°49' E 013°41'1118.0
2017-Feb-20 19:33N 36°43' E 013°53'1818.4
2017-Feb-20 18:33N 36°33' E 014°12'1818.4
2017-Feb-20 17:34N 36°24' E 014°32'1918.5
2017-Feb-20 16:33N 36°18' E 014°53'  

Dump ship's entire track history